sensor_id;sensor_type;location;lat;lon;timestamp;pressure;altitude;pressure_sealevel;temperature;humidity
41712;BME280;27399;51.516;13.670;2022-07-04T00:00:42;100343.63;;;21.85;78.01
41712;BME280;27399;51.516;13.670;2022-07-04T00:06:10;100355.31;;;22.33;76.59
41712;BME280;27399;51.516;13.670;2022-07-04T00:08:54;100350.72;;;21.71;78.36
41712;BME280;27399;51.516;13.670;2022-07-04T00:17:44;100373.06;;;22.08;76.55
41712;BME280;27399;51.516;13.670;2022-07-04T00:20:11;100369.19;;;21.80;77.89
41712;BME280;27399;51.516;13.670;2022-07-04T00:22:37;100359.22;;;21.65;78.56
41712;BME280;27399;51.516;13.670;2022-07-04T00:25:04;100368.97;;;21.85;77.99
41712;BME280;27399;51.516;13.670;2022-07-04T00:27:30;100367.38;;;21.81;78.38
41712;BME280;27399;51.516;13.670;2022-07-04T00:29:56;100372.63;;;21.68;78.44
41712;BME280;27399;51.516;13.670;2022-07-04T00:32:22;100374.03;;;21.91;77.68
41712;BME280;27399;51.516;13.670;2022-07-04T00:34:47;100386.41;;;21.30;78.94
41712;BME280;27399;51.516;13.670;2022-07-04T00:37:13;100389.78;;;21.85;77.07
41712;BME280;27399;51.516;13.670;2022-07-04T00:39:39;100378.91;;;21.35;79.18
41712;BME280;27399;51.516;13.670;2022-07-04T00:42:05;100377.81;;;21.21;78.33
41712;BME280;27399;51.516;13.670;2022-07-04T00:44:31;100376.84;;;21.56;78.19
41712;BME280;27399;51.516;13.670;2022-07-04T00:46:57;100378.38;;;21.62;77.90
41712;BME280;27399;51.516;13.670;2022-07-04T00:49:22;100372.53;;;21.70;77.97
41712;BME280;27399;51.516;13.670;2022-07-04T00:51:49;100377.97;;;21.86;77.02
41712;BME280;27399;51.516;13.670;2022-07-04T00:54:16;100383.34;;;21.20;78.45
41712;BME280;27399;51.516;13.670;2022-07-04T00:56:44;100382.75;;;21.80;76.62
41712;BME280;27399;51.516;13.670;2022-07-04T00:59:11;100383.69;;;21.47;76.80
41712;BME280;27399;51.516;13.670;2022-07-04T01:01:37;100381.75;;;21.83;76.33
41712;BME280;27399;51.516;13.670;2022-07-04T01:04:04;100382.03;;;21.61;75.18
41712;BME280;27399;51.516;13.670;2022-07-04T01:06:31;100380.50;;;21.73;75.81
41712;BME280;27399;51.516;13.670;2022-07-04T01:08:57;100388.00;;;21.67;74.97
41712;BME280;27399;51.516;13.670;2022-07-04T01:11:23;100381.75;;;21.83;75.08
41712;BME280;27399;51.516;13.670;2022-07-04T01:13:48;100374.38;;;22.01;73.49
41712;BME280;27399;51.516;13.670;2022-07-04T01:16:14;100376.31;;;21.83;73.71
41712;BME280;27399;51.516;13.670;2022-07-04T01:18:40;100393.63;;;22.12;72.47
41712;BME280;27399;51.516;13.670;2022-07-04T01:21:06;100386.38;;;21.97;72.63
41712;BME280;27399;51.516;13.670;2022-07-04T01:23:35;100396.09;;;22.01;72.18
41712;BME280;27399;51.516;13.670;2022-07-04T01:26:02;100391.72;;;22.14;72.04
41712;BME280;27399;51.516;13.670;2022-07-04T01:28:27;100402.13;;;22.38;71.54
41712;BME280;27399;51.516;13.670;2022-07-04T01:30:53;100414.69;;;22.41;71.02
41712;BME280;27399;51.516;13.670;2022-07-04T01:33:19;100411.25;;;22.37;71.31
41712;BME280;27399;51.516;13.670;2022-07-04T01:35:44;100423.19;;;22.19;72.12
41712;BME280;27399;51.516;13.670;2022-07-04T01:38:15;100431.31;;;22.35;71.90
41712;BME280;27399;51.516;13.670;2022-07-04T01:40:42;100432.00;;;22.38;71.54
41712;BME280;27399;51.516;13.670;2022-07-04T01:43:08;100435.34;;;22.43;71.45
41712;BME280;27399;51.516;13.670;2022-07-04T01:45:34;100435.84;;;22.34;71.07
41712;BME280;27399;51.516;13.670;2022-07-04T01:48:16;100438.81;;;22.47;70.72
41712;BME280;27399;51.516;13.670;2022-07-04T01:50:45;100437.09;;;22.44;70.84
41712;BME280;27399;51.516;13.670;2022-07-04T01:53:18;100441.50;;;22.63;69.84
41712;BME280;27399;51.516;13.670;2022-07-04T01:55:50;100441.28;;;22.02;72.36
41712;BME280;27399;51.516;13.670;2022-07-04T01:58:22;100447.63;;;22.03;72.17
41712;BME280;27399;51.516;13.670;2022-07-04T02:00:51;100450.78;;;22.27;71.64
41712;BME280;27399;51.516;13.670;2022-07-04T02:03:36;100455.25;;;22.28;71.87
41712;BME280;27399;51.516;13.670;2022-07-04T02:06:02;100460.78;;;22.26;71.49
41712;BME280;27399;51.516;13.670;2022-07-04T02:08:28;100471.78;;;22.07;72.89
41712;BME280;27399;51.516;13.670;2022-07-04T02:11:14;100476.19;;;22.26;72.46
41712;BME280;27399;51.516;13.670;2022-07-04T02:13:43;100473.38;;;21.95;73.19
41712;BME280;27399;51.516;13.670;2022-07-04T02:16:09;100474.25;;;21.62;74.68
41712;BME280;27399;51.516;13.670;2022-07-04T02:18:53;100475.84;;;21.82;74.12
41712;BME280;27399;51.516;13.670;2022-07-04T02:21:24;100484.19;;;21.79;74.81
41712;BME280;27399;51.516;13.670;2022-07-04T02:23:56;100487.50;;;21.85;74.59
41712;BME280;27399;51.516;13.670;2022-07-04T02:26:25;100486.72;;;21.82;74.18
41712;BME280;27399;51.516;13.670;2022-07-04T02:28:52;100477.56;;;21.67;73.97
41712;BME280;27399;51.516;13.670;2022-07-04T02:31:26;100473.69;;;21.89;73.04
41712;BME280;27399;51.516;13.670;2022-07-04T02:33:58;100497.47;;;21.68;72.50
41712;BME280;27399;51.516;13.670;2022-07-04T02:36:24;100496.13;;;22.09;72.45
41712;BME280;27399;51.516;13.670;2022-07-04T02:38:55;100506.94;;;22.10;72.79
41712;BME280;27399;51.516;13.670;2022-07-04T02:41:30;100505.53;;;22.19;72.49
41712;BME280;27399;51.516;13.670;2022-07-04T02:43:57;100509.97;;;22.04;73.19
41712;BME280;27399;51.516;13.670;2022-07-04T02:46:26;100514.19;;;22.10;73.40
41712;BME280;27399;51.516;13.670;2022-07-04T02:48:55;100518.06;;;22.06;73.55
41712;BME280;27399;51.516;13.670;2022-07-04T02:51:24;100512.66;;;21.88;73.76
41712;BME280;27399;51.516;13.670;2022-07-04T02:53:53;100522.03;;;21.98;73.25
41712;BME280;27399;51.516;13.670;2022-07-04T02:56:25;100532.06;;;22.14;72.09
41712;BME280;27399;51.516;13.670;2022-07-04T02:58:51;100531.84;;;21.85;73.22
41712;BME280;27399;51.516;13.670;2022-07-04T03:01:17;100531.84;;;22.01;73.04
41712;BME280;27399;51.516;13.670;2022-07-04T03:03:49;100529.63;;;22.09;73.36
41712;BME280;27399;51.516;13.670;2022-07-04T03:06:18;100523.81;;;22.00;73.65
41712;BME280;27399;51.516;13.670;2022-07-04T03:08:45;100526.50;;;21.66;74.50
41712;BME280;27399;51.516;13.670;2022-07-04T03:13:56;100536.81;;;21.59;75.22
41712;BME280;27399;51.516;13.670;2022-07-04T03:16:22;100549.50;;;21.76;74.50
41712;BME280;27399;51.516;13.670;2022-07-04T03:18:48;100544.38;;;21.70;75.13
41712;BME280;27399;51.516;13.670;2022-07-04T03:21:16;100545.06;;;21.56;75.75
41712;BME280;27399;51.516;13.670;2022-07-04T03:23:49;100546.38;;;21.49;75.33
41712;BME280;27399;51.516;13.670;2022-07-04T03:26:27;100559.22;;;21.63;75.92
41712;BME280;27399;51.516;13.670;2022-07-04T03:28:55;100562.22;;;21.39;77.02
41712;BME280;27399;51.516;13.670;2022-07-04T03:31:25;100561.13;;;21.26;77.81
41712;BME280;27399;51.516;13.670;2022-07-04T03:33:54;100572.13;;;21.40;77.89
41712;BME280;27399;51.516;13.670;2022-07-04T03:36:26;100576.34;;;21.46;77.67
41712;BME280;27399;51.516;13.670;2022-07-04T03:38:52;100584.59;;;21.27;77.90
41712;BME280;27399;51.516;13.670;2022-07-04T03:41:24;100590.00;;;21.44;77.76
41712;BME280;27399;51.516;13.670;2022-07-04T03:43:55;100590.00;;;21.27;78.44
41712;BME280;27399;51.516;13.670;2022-07-04T03:46:39;100600.69;;;21.30;78.17
41712;BME280;27399;51.516;13.670;2022-07-04T03:49:08;100601.59;;;21.11;78.66
41712;BME280;27399;51.516;13.670;2022-07-04T03:51:39;100608.13;;;21.07;79.43
41712;BME280;27399;51.516;13.670;2022-07-04T03:54:08;100612.41;;;21.30;78.83
41712;BME280;27399;51.516;13.670;2022-07-04T03:56:34;100611.69;;;21.27;79.57
41712;BME280;27399;51.516;13.670;2022-07-04T03:59:05;100603.63;;;21.25;79.95
41712;BME280;27399;51.516;13.670;2022-07-04T04:01:37;100612.34;;;21.49;79.12
41712;BME280;27399;51.516;13.670;2022-07-04T04:04:07;100613.84;;;21.38;79.06
41712;BME280;27399;51.516;13.670;2022-07-04T04:06:54;100619.53;;;21.50;78.57
41712;BME280;27399;51.516;13.670;2022-07-04T04:09:26;100622.66;;;21.43;79.30
41712;BME280;27399;51.516;13.670;2022-07-04T04:11:57;100619.72;;;21.47;78.83
41712;BME280;27399;51.516;13.670;2022-07-04T04:14:22;100625.34;;;21.79;76.11
41712;BME280;27399;51.516;13.670;2022-07-04T04:16:50;100631.91;;;21.56;77.83
41712;BME280;27399;51.516;13.670;2022-07-04T04:19:16;100631.81;;;21.40;77.49
41712;BME280;27399;51.516;13.670;2022-07-04T04:21:45;100639.03;;;21.59;77.29
41712;BME280;27399;51.516;13.670;2022-07-04T04:24:12;100637.47;;;21.35;77.48
41712;BME280;27399;51.516;13.670;2022-07-04T04:26:40;100629.50;;;21.50;77.52
41712;BME280;27399;51.516;13.670;2022-07-04T04:29:09;100640.16;;;21.72;76.46
41712;BME280;27399;51.516;13.670;2022-07-04T04:31:35;100652.25;;;21.47;75.43
41712;BME280;27399;51.516;13.670;2022-07-04T04:34:07;100644.50;;;21.57;74.73
41712;BME280;27399;51.516;13.670;2022-07-04T04:36:33;100647.03;;;21.62;75.01
41712;BME280;27399;51.516;13.670;2022-07-04T04:39:02;100649.06;;;21.57;75.06
41712;BME280;27399;51.516;13.670;2022-07-04T04:41:28;100644.41;;;21.60;74.80
41712;BME280;27399;51.516;13.670;2022-07-04T04:43:54;100654.88;;;21.49;75.45
41712;BME280;27399;51.516;13.670;2022-07-04T04:46:31;100657.72;;;21.28;76.56
41712;BME280;27399;51.516;13.670;2022-07-04T04:49:00;100661.19;;;21.49;76.31
41712;BME280;27399;51.516;13.670;2022-07-04T04:51:28;100658.91;;;21.23;75.61
41712;BME280;27399;51.516;13.670;2022-07-04T04:53:57;100660.59;;;21.62;75.86
41712;BME280;27399;51.516;13.670;2022-07-04T04:56:23;100649.38;;;21.50;75.01
41712;BME280;27399;51.516;13.670;2022-07-04T04:58:55;100664.56;;;21.55;75.13
41712;BME280;27399;51.516;13.670;2022-07-04T05:01:24;100670.94;;;21.54;75.10
41712;BME280;27399;51.516;13.670;2022-07-04T05:03:53;100666.78;;;21.46;75.80
41712;BME280;27399;51.516;13.670;2022-07-04T05:06:24;100659.13;;;21.55;74.30
41712;BME280;27399;51.516;13.670;2022-07-04T05:08:53;100668.09;;;21.92;74.80
41712;BME280;27399;51.516;13.670;2022-07-04T05:11:22;100664.13;;;21.99;74.71
41712;BME280;27399;51.516;13.670;2022-07-04T05:17:21;100667.78;;;21.63;76.42
41712;BME280;27399;51.516;13.670;2022-07-04T05:19:53;100664.13;;;21.81;75.56
41712;BME280;27399;51.516;13.670;2022-07-04T05:22:27;100669.25;;;21.88;75.94
41712;BME280;27399;51.516;13.670;2022-07-04T05:24:56;100664.06;;;21.46;76.61
41712;BME280;27399;51.516;13.670;2022-07-04T05:27:24;100664.91;;;21.83;75.83
41712;BME280;27399;51.516;13.670;2022-07-04T05:30:07;100673.63;;;21.90;75.61
41712;BME280;27399;51.516;13.670;2022-07-04T05:32:38;100668.13;;;21.74;76.56
41712;BME280;27399;51.516;13.670;2022-07-04T05:35:15;100667.81;;;21.98;75.51
41712;BME280;27399;51.516;13.670;2022-07-04T05:37:41;100669.53;;;22.17;75.70
41712;BME280;27399;51.516;13.670;2022-07-04T05:40:10;100666.59;;;21.69;76.30
41712;BME280;27399;51.516;13.670;2022-07-04T05:42:39;100686.22;;;22.09;76.52
41712;BME280;27399;51.516;13.670;2022-07-04T05:45:09;100671.16;;;21.12;77.31
41712;BME280;27399;51.516;13.670;2022-07-04T05:47:46;100687.75;;;21.97;76.32
41712;BME280;27399;51.516;13.670;2022-07-04T05:50:12;100682.16;;;22.18;76.35
41712;BME280;27399;51.516;13.670;2022-07-04T05:52:42;100692.13;;;22.17;76.23
41712;BME280;27399;51.516;13.670;2022-07-04T05:55:11;100692.44;;;21.76;76.54
41712;BME280;27399;51.516;13.670;2022-07-04T05:57:36;100704.03;;;22.14;76.55
41712;BME280;27399;51.516;13.670;2022-07-04T06:00:06;100702.28;;;22.31;75.21
41712;BME280;27399;51.516;13.670;2022-07-04T06:02:32;100702.44;;;22.28;76.20
41712;BME280;27399;51.516;13.670;2022-07-04T06:07:45;100708.94;;;22.25;76.09
41712;BME280;27399;51.516;13.670;2022-07-04T06:10:14;100719.44;;;22.32;76.27
41712;BME280;27399;51.516;13.670;2022-07-04T06:12:40;100730.25;;;22.51;75.34
41712;BME280;27399;51.516;13.670;2022-07-04T06:15:06;100730.91;;;22.21;76.05
41712;BME280;27399;51.516;13.670;2022-07-04T06:17:36;100725.78;;;22.32;75.67
41712;BME280;27399;51.516;13.670;2022-07-04T06:20:11;100730.09;;;22.54;75.44
41712;BME280;27399;51.516;13.670;2022-07-04T06:22:41;100709.63;;;22.47;75.42
41712;BME280;27399;51.516;13.670;2022-07-04T06:25:12;100730.25;;;22.51;74.33
41712;BME280;27399;51.516;13.670;2022-07-04T06:27:44;100728.44;;;22.85;74.80
41712;BME280;27399;51.516;13.670;2022-07-04T06:30:19;100731.16;;;23.01;74.76
41712;BME280;27399;51.516;13.670;2022-07-04T06:32:46;100726.66;;;22.84;73.34
41712;BME280;27399;51.516;13.670;2022-07-04T06:35:18;100734.47;;;22.90;74.24
41712;BME280;27399;51.516;13.670;2022-07-04T06:38:05;100731.13;;;23.34;73.41
41712;BME280;27399;51.516;13.670;2022-07-04T06:40:34;100731.56;;;23.43;72.04
41712;BME280;27399;51.516;13.670;2022-07-04T06:43:01;100733.59;;;23.39;72.63
41712;BME280;27399;51.516;13.670;2022-07-04T06:45:29;100734.28;;;23.27;73.11
41712;BME280;27399;51.516;13.670;2022-07-04T06:47:55;100750.88;;;23.22;71.04
41712;BME280;27399;51.516;13.670;2022-07-04T06:50:22;100749.91;;;23.55;71.20
41712;BME280;27399;51.516;13.670;2022-07-04T06:52:51;100749.66;;;23.44;71.62
41712;BME280;27399;51.516;13.670;2022-07-04T06:55:38;100735.06;;;23.61;70.49
41712;BME280;27399;51.516;13.670;2022-07-04T06:58:05;100727.69;;;23.47;70.58
41712;BME280;27399;51.516;13.670;2022-07-04T07:00:32;100728.34;;;23.82;70.59
41712;BME280;27399;51.516;13.670;2022-07-04T07:03:02;100736.19;;;23.73;71.19
41712;BME280;27399;51.516;13.670;2022-07-04T07:05:32;100729.66;;;23.91;71.53
41712;BME280;27399;51.516;13.670;2022-07-04T07:08:05;100733.88;;;23.97;69.47
41712;BME280;27399;51.516;13.670;2022-07-04T07:10:31;100733.75;;;24.29;69.15
41712;BME280;27399;51.516;13.670;2022-07-04T07:13:02;100730.34;;;24.25;68.81
41712;BME280;27399;51.516;13.670;2022-07-04T07:15:28;100723.22;;;23.46;68.38
41712;BME280;27399;51.516;13.670;2022-07-04T07:17:55;100727.38;;;24.00;68.05
41712;BME280;27399;51.516;13.670;2022-07-04T07:20:24;100721.72;;;23.87;69.68
41712;BME280;27399;51.516;13.670;2022-07-04T07:22:55;100732.56;;;24.19;67.49
41712;BME280;27399;51.516;13.670;2022-07-04T07:25:25;100727.44;;;24.28;67.54
41712;BME280;27399;51.516;13.670;2022-07-04T07:27:53;100731.31;;;24.24;67.37
41712;BME280;27399;51.516;13.670;2022-07-04T07:30:25;100733.56;;;24.32;67.87
41712;BME280;27399;51.516;13.670;2022-07-04T07:32:52;100721.44;;;24.52;66.75
41712;BME280;27399;51.516;13.670;2022-07-04T07:35:20;100725.78;;;23.95;67.31
41712;BME280;27399;51.516;13.670;2022-07-04T07:37:47;100727.47;;;24.57;65.88
41712;BME280;27399;51.516;13.670;2022-07-04T07:40:16;100734.47;;;24.47;64.25
41712;BME280;27399;51.516;13.670;2022-07-04T07:42:41;100733.56;;;24.77;65.57
41712;BME280;27399;51.516;13.670;2022-07-04T07:45:07;100724.25;;;24.36;64.22
41712;BME280;27399;51.516;13.670;2022-07-04T07:47:33;100724.47;;;25.05;64.87
41712;BME280;27399;51.516;13.670;2022-07-04T07:49:59;100732.00;;;25.02;64.11
41712;BME280;27399;51.516;13.670;2022-07-04T07:52:24;100730.66;;;24.95;64.03
41712;BME280;27399;51.516;13.670;2022-07-04T07:54:50;100726.38;;;25.47;64.63
41712;BME280;27399;51.516;13.670;2022-07-04T07:57:16;100730.19;;;25.44;64.11
41712;BME280;27399;51.516;13.670;2022-07-04T07:59:41;100733.19;;;25.54;64.19
41712;BME280;27399;51.516;13.670;2022-07-04T08:02:07;100723.78;;;25.16;62.48
41712;BME280;27399;51.516;13.670;2022-07-04T08:04:32;100735.81;;;25.56;62.85
41712;BME280;27399;51.516;13.670;2022-07-04T08:07:07;100730.25;;;25.57;63.41
41712;BME280;27399;51.516;13.670;2022-07-04T08:09:34;100727.34;;;25.46;62.31
41712;BME280;27399;51.516;13.670;2022-07-04T08:12:01;100736.69;;;25.56;59.93
41712;BME280;27399;51.516;13.670;2022-07-04T08:14:28;100723.34;;;25.51;59.29
41712;BME280;27399;51.516;13.670;2022-07-04T08:16:55;100729.25;;;25.58;60.15
41712;BME280;27399;51.516;13.670;2022-07-04T08:19:21;100739.78;;;25.64;62.14
41712;BME280;27399;51.516;13.670;2022-07-04T08:21:47;100727.38;;;25.17;60.93
41712;BME280;27399;51.516;13.670;2022-07-04T08:24:14;100735.16;;;25.79;61.93
41712;BME280;27399;51.516;13.670;2022-07-04T08:26:40;100729.59;;;25.94;60.38
41712;BME280;27399;51.516;13.670;2022-07-04T08:29:19;100729.41;;;25.97;60.93
41712;BME280;27399;51.516;13.670;2022-07-04T08:31:45;100736.69;;;26.11;60.47
41712;BME280;27399;51.516;13.670;2022-07-04T08:34:10;100733.53;;;26.17;59.80
41712;BME280;27399;51.516;13.670;2022-07-04T08:36:36;100729.19;;;26.00;61.12
41712;BME280;27399;51.516;13.670;2022-07-04T08:39:02;100725.13;;;26.33;59.37
41712;BME280;27399;51.516;13.670;2022-07-04T08:41:28;100743.28;;;26.34;58.72
41712;BME280;27399;51.516;13.670;2022-07-04T08:43:56;100732.78;;;26.28;59.04
41712;BME280;27399;51.516;13.670;2022-07-04T08:46:25;100745.31;;;26.18;58.86
41712;BME280;27399;51.516;13.670;2022-07-04T08:48:52;100737.59;;;26.37;59.85
41712;BME280;27399;51.516;13.670;2022-07-04T08:51:43;100742.59;;;26.18;57.97
41712;BME280;27399;51.516;13.670;2022-07-04T08:54:09;100739.66;;;26.21;56.64
41712;BME280;27399;51.516;13.670;2022-07-04T08:56:55;100741.16;;;26.12;58.25
41712;BME280;27399;51.516;13.670;2022-07-04T08:59:39;100739.13;;;26.41;57.72
41712;BME280;27399;51.516;13.670;2022-07-04T09:02:06;100745.63;;;26.66;58.84
41712;BME280;27399;51.516;13.670;2022-07-04T09:04:32;100736.94;;;26.34;56.86
41712;BME280;27399;51.516;13.670;2022-07-04T09:06:58;100737.63;;;26.63;58.81
41712;BME280;27399;51.516;13.670;2022-07-04T09:09:25;100744.19;;;26.86;57.98
41712;BME280;27399;51.516;13.670;2022-07-04T09:11:51;100742.75;;;27.06;57.61
41712;BME280;27399;51.516;13.670;2022-07-04T09:14:16;100728.88;;;26.84;58.62
41712;BME280;27399;51.516;13.670;2022-07-04T09:16:42;100737.63;;;26.89;56.45
41712;BME280;27399;51.516;13.670;2022-07-04T09:19:19;100735.44;;;26.94;56.53
41712;BME280;27399;51.516;13.670;2022-07-04T09:21:46;100735.72;;;26.25;57.39
41712;BME280;27399;51.516;13.670;2022-07-04T09:24:12;100734.66;;;26.92;58.63
41712;BME280;27399;51.516;13.670;2022-07-04T09:26:45;100738.16;;;26.94;57.56
41712;BME280;27399;51.516;13.670;2022-07-04T09:29:12;100731.38;;;27.00;57.76
41712;BME280;27399;51.516;13.670;2022-07-04T09:31:38;100736.22;;;27.33;55.74
41712;BME280;27399;51.516;13.670;2022-07-04T09:34:06;100734.28;;;27.10;56.54
41712;BME280;27399;51.516;13.670;2022-07-04T09:36:34;100730.28;;;26.64;55.72
41712;BME280;27399;51.516;13.670;2022-07-04T09:39:17;100738.72;;;26.86;57.57
41712;BME280;27399;51.516;13.670;2022-07-04T09:41:52;100737.13;;;26.18;56.87
41712;BME280;27399;51.516;13.670;2022-07-04T09:44:18;100738.84;;;26.85;55.70
41712;BME280;27399;51.516;13.670;2022-07-04T09:46:44;100731.06;;;26.91;55.85
41712;BME280;27399;51.516;13.670;2022-07-04T09:49:12;100727.69;;;27.25;55.12
41712;BME280;27399;51.516;13.670;2022-07-04T09:51:45;100732.38;;;26.86;56.68
41712;BME280;27399;51.516;13.670;2022-07-04T09:56:44;100726.25;;;27.70;54.49
41712;BME280;27399;51.516;13.670;2022-07-04T09:59:10;100724.63;;;27.30;55.15
41712;BME280;27399;51.516;13.670;2022-07-04T10:01:36;100720.25;;;27.64;54.91
41712;BME280;27399;51.516;13.670;2022-07-04T10:04:02;100729.59;;;27.12;55.22
41712;BME280;27399;51.516;13.670;2022-07-04T10:06:32;100729.44;;;27.63;55.29
41712;BME280;27399;51.516;13.670;2022-07-04T10:09:15;100730.94;;;27.30;54.79
41712;BME280;27399;51.516;13.670;2022-07-04T10:11:42;100727.22;;;27.31;54.66
41712;BME280;27399;51.516;13.670;2022-07-04T10:14:09;100736.72;;;27.14;55.38
41712;BME280;27399;51.516;13.670;2022-07-04T10:16:37;100722.28;;;26.99;54.27
41712;BME280;27399;51.516;13.670;2022-07-04T10:19:04;100738.06;;;26.70;55.67
41712;BME280;27399;51.516;13.670;2022-07-04T10:21:31;100719.88;;;27.08;55.73
41712;BME280;27399;51.516;13.670;2022-07-04T10:23:57;100726.66;;;26.63;55.97
41712;BME280;27399;51.516;13.670;2022-07-04T10:26:24;100720.47;;;26.87;56.29
41712;BME280;27399;51.516;13.670;2022-07-04T10:28:51;100711.13;;;27.40;56.06
41712;BME280;27399;51.516;13.670;2022-07-04T10:31:21;100715.69;;;27.15;55.01
41712;BME280;27399;51.516;13.670;2022-07-04T10:33:48;100717.81;;;27.35;56.41
41712;BME280;27399;51.516;13.670;2022-07-04T10:36:15;100712.47;;;27.34;54.70
41712;BME280;27399;51.516;13.670;2022-07-04T10:38:53;100717.00;;;27.09;53.83
41712;BME280;27399;51.516;13.670;2022-07-04T10:41:21;100710.75;;;27.57;56.55
41712;BME280;27399;51.516;13.670;2022-07-04T10:48:50;100707.78;;;27.23;54.40
41712;BME280;27399;51.516;13.670;2022-07-04T10:56:40;100700.31;;;27.87;55.31
41712;BME280;27399;51.516;13.670;2022-07-04T10:59:14;100695.28;;;27.80;53.18
41712;BME280;27399;51.516;13.670;2022-07-04T11:01:52;100692.91;;;27.76;54.12
41712;BME280;27399;51.516;13.670;2022-07-04T11:17:51;100688.44;;;27.50;53.73
41712;BME280;27399;51.516;13.670;2022-07-04T11:20:21;100689.03;;;28.03;55.32
41712;BME280;27399;51.516;13.670;2022-07-04T11:22:47;100696.63;;;28.46;54.34
41712;BME280;27399;51.516;13.670;2022-07-04T11:25:13;100683.53;;;28.38;52.79
41712;BME280;27399;51.516;13.670;2022-07-04T11:27:40;100681.66;;;28.50;53.71
41712;BME280;27399;51.516;13.670;2022-07-04T11:30:06;100686.31;;;28.72;51.99
41712;BME280;27399;51.516;13.670;2022-07-04T11:32:34;100674.66;;;28.57;52.09
41712;BME280;27399;51.516;13.670;2022-07-04T11:35:01;100682.41;;;28.64;51.67
41712;BME280;27399;51.516;13.670;2022-07-04T11:37:27;100666.44;;;28.35;52.75
41712;BME280;27399;51.516;13.670;2022-07-04T11:39:53;100680.44;;;28.66;52.08
41712;BME280;27399;51.516;13.670;2022-07-04T11:43:07;100680.44;;;28.66;50.80
41712;BME280;27399;51.516;13.670;2022-07-04T11:45:51;100681.19;;;28.90;51.70
41712;BME280;27399;51.516;13.670;2022-07-04T11:48:35;100671.44;;;28.41;51.39
41712;BME280;27399;51.516;13.670;2022-07-04T11:51:01;100675.44;;;28.82;52.85
41712;BME280;27399;51.516;13.670;2022-07-04T11:53:26;100669.72;;;28.97;50.51
41712;BME280;27399;51.516;13.670;2022-07-04T11:55:53;100669.94;;;28.71;50.84
41712;BME280;27399;51.516;13.670;2022-07-04T11:58:19;100675.56;;;27.99;52.08
41712;BME280;27399;51.516;13.670;2022-07-04T12:00:44;100668.13;;;28.71;51.87
41712;BME280;27399;51.516;13.670;2022-07-04T12:03:10;100659.75;;;28.73;50.98
41712;BME280;27399;51.516;13.670;2022-07-04T12:05:35;100674.69;;;28.91;51.65
41712;BME280;27399;51.516;13.670;2022-07-04T12:08:03;100680.06;;;28.70;50.85
41712;BME280;27399;51.516;13.670;2022-07-04T12:10:30;100673.44;;;28.50;51.19
41712;BME280;27399;51.516;13.670;2022-07-04T12:12:58;100669.59;;;28.75;50.03
41712;BME280;27399;51.516;13.670;2022-07-04T12:15:35;100667.19;;;28.71;51.19
41712;BME280;27399;51.516;13.670;2022-07-04T12:18:01;100669.19;;;28.46;51.81
41712;BME280;27399;51.516;13.670;2022-07-04T12:20:27;100676.16;;;28.50;51.62
41712;BME280;27399;51.516;13.670;2022-07-04T12:22:58;100673.19;;;28.53;51.36
41712;BME280;27399;51.516;13.670;2022-07-04T12:27:59;100678.53;;;28.66;52.01
41712;BME280;27399;51.516;13.670;2022-07-04T12:30:28;100678.16;;;28.48;52.71
41712;BME280;27399;51.516;13.670;2022-07-04T12:33:02;100680.28;;;28.56;51.89
41712;BME280;27399;51.516;13.670;2022-07-04T12:35:48;100675.69;;;28.45;52.03
41712;BME280;27399;51.516;13.670;2022-07-04T12:43:19;100678.22;;;28.12;52.44
41712;BME280;27399;51.516;13.670;2022-07-04T12:45:51;100682.84;;;28.12;52.69
41712;BME280;27399;51.516;13.670;2022-07-04T12:48:22;100675.88;;;28.19;50.50
41712;BME280;27399;51.516;13.670;2022-07-04T12:50:48;100669.06;;;28.48;51.84
41712;BME280;27399;51.516;13.670;2022-07-04T12:53:14;100675.78;;;27.96;52.21
41712;BME280;27399;51.516;13.670;2022-07-04T12:55:41;100680.53;;;27.70;51.71
41712;BME280;27399;51.516;13.670;2022-07-04T12:58:08;100672.69;;;27.65;52.02
41712;BME280;27399;51.516;13.670;2022-07-04T13:00:34;100686.28;;;28.03;53.41
41712;BME280;27399;51.516;13.670;2022-07-04T13:02:59;100684.22;;;27.82;53.24
41712;BME280;27399;51.516;13.670;2022-07-04T13:05:25;100682.13;;;27.86;54.27
41712;BME280;27399;51.516;13.670;2022-07-04T13:07:52;100686.13;;;27.93;52.36
41712;BME280;27399;51.516;13.670;2022-07-04T13:10:17;100687.72;;;27.95;52.13
41712;BME280;27399;51.516;13.670;2022-07-04T13:12:43;100679.75;;;28.17;53.43
41712;BME280;27399;51.516;13.670;2022-07-04T13:15:09;100680.41;;;28.43;53.64
41712;BME280;27399;51.516;13.670;2022-07-04T13:17:36;100681.19;;;28.56;54.26
41712;BME280;27399;51.516;13.670;2022-07-04T13:20:03;100665.09;;;28.52;51.32
41712;BME280;27399;51.516;13.670;2022-07-04T13:22:29;100672.31;;;28.64;50.71
41712;BME280;27399;51.516;13.670;2022-07-04T13:24:56;100673.94;;;28.55;50.51
41712;BME280;27399;51.516;13.670;2022-07-04T13:27:22;100665.22;;;28.96;52.49
41712;BME280;27399;51.516;13.670;2022-07-04T13:29:47;100663.59;;;28.59;49.84
41712;BME280;27399;51.516;13.670;2022-07-04T13:32:13;100667.97;;;28.84;51.90
41712;BME280;27399;51.516;13.670;2022-07-04T13:34:39;100662.84;;;28.91;51.82
41712;BME280;27399;51.516;13.670;2022-07-04T13:37:05;100654.69;;;28.21;50.41
41712;BME280;27399;51.516;13.670;2022-07-04T13:39:31;100660.31;;;28.31;51.63
41712;BME280;27399;51.516;13.670;2022-07-04T13:41:56;100658.97;;;28.25;50.85